sensor_id;sensor_type;location;lat;lon;timestamp;pressure;altitude;pressure_sealevel;temperature;humidity
34506;BME280;20748;42.632;23.198;2024-01-16T00:02:20;90532.34;;;4.69;100.00
34506;BME280;20748;42.632;23.198;2024-01-16T00:04:54;90515.50;;;4.72;100.00
34506;BME280;20748;42.632;23.198;2024-01-16T00:07:28;90507.28;;;4.69;100.00
34506;BME280;20748;42.632;23.198;2024-01-16T00:10:07;90513.72;;;4.81;100.00
34506;BME280;20748;42.632;23.198;2024-01-16T00:12:41;90521.16;;;4.74;100.00
34506;BME280;20748;42.632;23.198;2024-01-16T00:15:16;90518.25;;;4.75;100.00
34506;BME280;20748;42.632;23.198;2024-01-16T00:17:51;90534.97;;;4.78;100.00
34506;BME280;20748;42.632;23.198;2024-01-16T00:20:26;90535.47;;;4.80;100.00
34506;BME280;20748;42.632;23.198;2024-01-16T00:23:00;90549.25;;;4.75;100.00
34506;BME280;20748;42.632;23.198;2024-01-16T00:25:34;90560.41;;;4.84;100.00
34506;BME280;20748;42.632;23.198;2024-01-16T00:28:09;90551.41;;;4.82;100.00
34506;BME280;20748;42.632;23.198;2024-01-16T00:30:43;90542.59;;;4.83;100.00
34506;BME280;20748;42.632;23.198;2024-01-16T00:33:18;90560.28;;;4.90;100.00
34506;BME280;20748;42.632;23.198;2024-01-16T00:35:53;90565.75;;;4.88;100.00
34506;BME280;20748;42.632;23.198;2024-01-16T00:38:27;90570.91;;;4.88;100.00
34506;BME280;20748;42.632;23.198;2024-01-16T00:41:01;90570.44;;;4.86;100.00
34506;BME280;20748;42.632;23.198;2024-01-16T00:43:35;90567.56;;;4.88;100.00
34506;BME280;20748;42.632;23.198;2024-01-16T00:46:10;90562.25;;;4.93;100.00
34506;BME280;20748;42.632;23.198;2024-01-16T00:48:45;90573.06;;;4.95;100.00
34506;BME280;20748;42.632;23.198;2024-01-16T00:51:21;90570.19;;;4.96;100.00
34506;BME280;20748;42.632;23.198;2024-01-16T00:53:55;90575.66;;;4.95;100.00
34506;BME280;20748;42.632;23.198;2024-01-16T00:56:29;90570.38;;;5.00;100.00
34506;BME280;20748;42.632;23.198;2024-01-16T00:59:06;90583.75;;;5.02;100.00
34506;BME280;20748;42.632;23.198;2024-01-16T01:01:40;90581.94;;;5.03;99.83
34506;BME280;20748;42.632;23.198;2024-01-16T01:04:16;90580.09;;;5.03;100.00
34506;BME280;20748;42.632;23.198;2024-01-16T01:06:50;90591.94;;;5.04;100.00
34506;BME280;20748;42.632;23.198;2024-01-16T01:09:24;90584.16;;;4.95;100.00
34506;BME280;20748;42.632;23.198;2024-01-16T01:11:58;90568.53;;;5.01;99.67
34506;BME280;20748;42.632;23.198;2024-01-16T01:14:33;90587.97;;;4.98;100.00
34506;BME280;20748;42.632;23.198;2024-01-16T01:17:08;90587.44;;;5.10;100.00
34506;BME280;20748;42.632;23.198;2024-01-16T01:19:43;90589.25;;;5.09;100.00
34506;BME280;20748;42.632;23.198;2024-01-16T01:22:19;90598.06;;;5.08;99.97
34506;BME280;20748;42.632;23.198;2024-01-16T01:24:53;90592.59;;;5.10;100.00
34506;BME280;20748;42.632;23.198;2024-01-16T01:27:27;90589.72;;;5.12;100.00
34506;BME280;20748;42.632;23.198;2024-01-16T01:30:01;90596.25;;;5.09;100.00
34506;BME280;20748;42.632;23.198;2024-01-16T01:32:36;90592.44;;;5.06;100.00
34506;BME280;20748;42.632;23.198;2024-01-16T01:35:12;90593.06;;;5.12;100.00
34506;BME280;20748;42.632;23.198;2024-01-16T01:37:47;90586.03;;;5.04;100.00
34506;BME280;20748;42.632;23.198;2024-01-16T01:40:22;90584.66;;;4.97;100.00
34506;BME280;20748;42.632;23.198;2024-01-16T01:42:56;90590.28;;;5.00;100.00
34506;BME280;20748;42.632;23.198;2024-01-16T01:45:30;90583.72;;;4.93;100.00
34506;BME280;20748;42.632;23.198;2024-01-16T01:48:05;90587.66;;;4.91;100.00
34506;BME280;20748;42.632;23.198;2024-01-16T01:50:43;90586.00;;;4.95;100.00
34506;BME280;20748;42.632;23.198;2024-01-16T01:53:18;90582.75;;;4.89;100.00
34506;BME280;20748;42.632;23.198;2024-01-16T01:55:53;90583.22;;;4.82;100.00
34506;BME280;20748;42.632;23.198;2024-01-16T01:58:28;90589.69;;;4.71;100.00
34506;BME280;20748;42.632;23.198;2024-01-16T02:01:04;90585.88;;;4.68;100.00
34506;BME280;20748;42.632;23.198;2024-01-16T02:03:41;90586.94;;;4.67;100.00
34506;BME280;20748;42.632;23.198;2024-01-16T02:06:18;90598.75;;;4.60;100.00
34506;BME280;20748;42.632;23.198;2024-01-16T02:08:52;90595.88;;;4.61;100.00
34506;BME280;20748;42.632;23.198;2024-01-16T02:11:26;90602.28;;;4.73;100.00
34506;BME280;20748;42.632;23.198;2024-01-16T02:14:01;90608.63;;;4.66;100.00
34506;BME280;20748;42.632;23.198;2024-01-16T02:16:36;90612.22;;;4.56;100.00
34506;BME280;20748;42.632;23.198;2024-01-16T02:19:11;90615.88;;;4.55;100.00
34506;BME280;20748;42.632;23.198;2024-01-16T02:21:48;90620.88;;;4.52;100.00
34506;BME280;20748;42.632;23.198;2024-01-16T02:24:24;90625.44;;;4.55;100.00
34506;BME280;20748;42.632;23.198;2024-01-16T02:26:59;90626.31;;;4.50;100.00
34506;BME280;20748;42.632;23.198;2024-01-16T02:29:33;90631.59;;;4.45;100.00
34506;BME280;20748;42.632;23.198;2024-01-16T02:32:07;90624.50;;;4.51;100.00
34506;BME280;20748;42.632;23.198;2024-01-16T02:34:44;90625.56;;;4.50;100.00
34506;BME280;20748;42.632;23.198;2024-01-16T02:37:18;90638.94;;;4.52;100.00
34506;BME280;20748;42.632;23.198;2024-01-16T02:40:53;90654.63;;;4.55;100.00
34506;BME280;20748;42.632;23.198;2024-01-16T02:43:28;90661.66;;;4.64;100.00
34506;BME280;20748;42.632;23.198;2024-01-16T02:46:02;90657.56;;;4.63;100.00
34506;BME280;20748;42.632;23.198;2024-01-16T02:48:36;90672.00;;;4.64;100.00
34506;BME280;20748;42.632;23.198;2024-01-16T02:51:10;90668.00;;;4.57;100.00
34506;BME280;20748;42.632;23.198;2024-01-16T02:53:45;90671.34;;;4.58;100.00
34506;BME280;20748;42.632;23.198;2024-01-16T02:56:21;90668.19;;;4.61;100.00
34506;BME280;20748;42.632;23.198;2024-01-16T02:58:55;90663.59;;;4.58;100.00
34506;BME280;20748;42.632;23.198;2024-01-16T03:01:29;90663.91;;;4.56;100.00
34506;BME280;20748;42.632;23.198;2024-01-16T03:04:03;90669.91;;;4.66;100.00
34506;BME280;20748;42.632;23.198;2024-01-16T03:06:38;90682.69;;;4.71;100.00
34506;BME280;20748;42.632;23.198;2024-01-16T03:09:12;90684.50;;;4.70;100.00
34506;BME280;20748;42.632;23.198;2024-01-16T03:11:48;90689.78;;;4.65;100.00
34506;BME280;20748;42.632;23.198;2024-01-16T03:14:22;90693.44;;;4.64;100.00
34506;BME280;20748;42.632;23.198;2024-01-16T03:16:57;90699.72;;;4.72;100.00
34506;BME280;20748;42.632;23.198;2024-01-16T03:19:31;90703.19;;;4.67;100.00
34506;BME280;20748;42.632;23.198;2024-01-16T03:22:05;90701.84;;;4.70;100.00
34506;BME280;20748;42.632;23.198;2024-01-16T03:24:38;90703.69;;;4.55;100.00
34506;BME280;20748;42.632;23.198;2024-01-16T03:27:14;90715.84;;;4.55;100.00
34506;BME280;20748;42.632;23.198;2024-01-16T03:29:48;90719.88;;;4.61;100.00
34506;BME280;20748;42.632;23.198;2024-01-16T03:32:23;90731.84;;;4.57;100.00
34506;BME280;20748;42.632;23.198;2024-01-16T03:34:57;90739.47;;;4.62;100.00
34506;BME280;20748;42.632;23.198;2024-01-16T03:37:31;90743.22;;;4.56;100.00
34506;BME280;20748;42.632;23.198;2024-01-16T03:40:07;90747.66;;;4.41;100.00
34506;BME280;20748;42.632;23.198;2024-01-16T03:42:43;90753.88;;;4.40;100.00
34506;BME280;20748;42.632;23.198;2024-01-16T03:45:17;90762.22;;;4.37;100.00
34506;BME280;20748;42.632;23.198;2024-01-16T03:47:51;90763.84;;;4.19;100.00
34506;BME280;20748;42.632;23.198;2024-01-16T03:50:25;90758.78;;;4.14;100.00
34506;BME280;20748;42.632;23.198;2024-01-16T03:52:59;90772.19;;;4.02;100.00
34506;BME280;20748;42.632;23.198;2024-01-16T03:55:34;90780.31;;;3.95;100.00
34506;BME280;20748;42.632;23.198;2024-01-16T03:58:09;90785.28;;;3.92;100.00
34506;BME280;20748;42.632;23.198;2024-01-16T04:00:45;90790.91;;;3.94;100.00
34506;BME280;20748;42.632;23.198;2024-01-16T04:03:20;90805.22;;;3.86;100.00
34506;BME280;20748;42.632;23.198;2024-01-16T04:05:54;90821.31;;;3.49;100.00
34506;BME280;20748;42.632;23.198;2024-01-16T04:08:28;90837.81;;;3.15;100.00
34506;BME280;20748;42.632;23.198;2024-01-16T04:11:03;90845.19;;;3.22;100.00
34506;BME280;20748;42.632;23.198;2024-01-16T04:13:39;90826.88;;;3.24;100.00
34506;BME280;20748;42.632;23.198;2024-01-16T04:16:13;90841.50;;;3.28;100.00
34506;BME280;20748;42.632;23.198;2024-01-16T04:18:47;90841.03;;;3.26;100.00
34506;BME280;20748;42.632;23.198;2024-01-16T04:21:22;90845.81;;;3.33;100.00
34506;BME280;20748;42.632;23.198;2024-01-16T04:23:56;90858.63;;;3.38;100.00
34506;BME280;20748;42.632;23.198;2024-01-16T04:26:29;90863.03;;;3.38;100.00
34506;BME280;20748;42.632;23.198;2024-01-16T04:29:05;90859.81;;;3.27;100.00
34506;BME280;20748;42.632;23.198;2024-01-16T04:31:39;90861.59;;;2.93;100.00
34506;BME280;20748;42.632;23.198;2024-01-16T04:34:14;90877.16;;;2.63;100.00
34506;BME280;20748;42.632;23.198;2024-01-16T04:36:48;90868.63;;;2.87;100.00
34506;BME280;20748;42.632;23.198;2024-01-16T04:39:22;90863.75;;;2.86;100.00
34506;BME280;20748;42.632;23.198;2024-01-16T04:41:56;90888.72;;;2.85;100.00
34506;BME280;20748;42.632;23.198;2024-01-16T04:44:32;90896.13;;;2.92;100.00
34506;BME280;20748;42.632;23.198;2024-01-16T04:47:06;90904.97;;;2.86;100.00
34506;BME280;20748;42.632;23.198;2024-01-16T04:49:41;90907.28;;;2.87;100.00
34506;BME280;20748;42.632;23.198;2024-01-16T04:52:14;90904.41;;;2.45;100.00
34506;BME280;20748;42.632;23.198;2024-01-16T04:54:48;90920.63;;;2.46;100.00
34506;BME280;20748;42.632;23.198;2024-01-16T04:57:23;90927.94;;;2.33;100.00
34506;BME280;20748;42.632;23.198;2024-01-16T04:59:58;90923.78;;;2.37;100.00
34506;BME280;20748;42.632;23.198;2024-01-16T05:02:33;90936.34;;;2.44;100.00
34506;BME280;20748;42.632;23.198;2024-01-16T05:05:08;90941.44;;;2.49;100.00
34506;BME280;20748;42.632;23.198;2024-01-16T05:07:42;90951.78;;;2.44;100.00
34506;BME280;20748;42.632;23.198;2024-01-16T05:10:17;90958.56;;;2.35;100.00
34506;BME280;20748;42.632;23.198;2024-01-16T05:12:50;90963.63;;;2.45;100.00
34506;BME280;20748;42.632;23.198;2024-01-16T05:15:26;90975.50;;;2.41;100.00
34506;BME280;20748;42.632;23.198;2024-01-16T05:18:00;90981.91;;;2.44;100.00
34506;BME280;20748;42.632;23.198;2024-01-16T05:20:36;90986.88;;;2.35;100.00
34506;BME280;20748;42.632;23.198;2024-01-16T05:23:10;90998.66;;;2.41;100.00
34506;BME280;20748;42.632;23.198;2024-01-16T05:25:45;91008.16;;;2.46;100.00
34506;BME280;20748;42.632;23.198;2024-01-16T05:28:19;91021.25;;;2.49;100.00
34506;BME280;20748;42.632;23.198;2024-01-16T05:30:55;91023.13;;;2.38;100.00
34506;BME280;20748;42.632;23.198;2024-01-16T05:33:29;91022.34;;;2.43;100.00
34506;BME280;20748;42.632;23.198;2024-01-16T05:36:03;91028.31;;;2.33;100.00
34506;BME280;20748;42.632;23.198;2024-01-16T05:38:37;91039.91;;;2.01;100.00
34506;BME280;20748;42.632;23.198;2024-01-16T05:41:11;91048.63;;;1.65;100.00
34506;BME280;20748;42.632;23.198;2024-01-16T05:43:45;91056.22;;;1.41;100.00
34506;BME280;20748;42.632;23.198;2024-01-16T05:46:20;91067.56;;;1.29;100.00
34506;BME280;20748;42.632;23.198;2024-01-16T05:48:54;91082.31;;;0.98;100.00
34506;BME280;20748;42.632;23.198;2024-01-16T05:51:29;91099.31;;;0.83;100.00
34506;BME280;20748;42.632;23.198;2024-01-16T05:54:02;91107.81;;;0.63;100.00
34506;BME280;20748;42.632;23.198;2024-01-16T05:56:37;91103.47;;;0.48;100.00
34506;BME280;20748;42.632;23.198;2024-01-16T05:59:11;91110.63;;;0.46;100.00
34506;BME280;20748;42.632;23.198;2024-01-16T06:01:46;91110.63;;;0.56;100.00
34506;BME280;20748;42.632;23.198;2024-01-16T06:04:21;91126.28;;;0.65;100.00
34506;BME280;20748;42.632;23.198;2024-01-16T06:06:56;91133.97;;;0.80;100.00
34506;BME280;20748;42.632;23.198;2024-01-16T06:09:30;91141.94;;;0.89;100.00
34506;BME280;20748;42.632;23.198;2024-01-16T06:12:05;91147.81;;;0.85;100.00
34506;BME280;20748;42.632;23.198;2024-01-16T06:14:39;91160.41;;;1.02;100.00
34506;BME280;20748;42.632;23.198;2024-01-16T06:17:15;91178.41;;;0.55;100.00
34506;BME280;20748;42.632;23.198;2024-01-16T06:19:49;91181.19;;;0.38;100.00
34506;BME280;20748;42.632;23.198;2024-01-16T06:22:23;91190.97;;;0.36;100.00
34506;BME280;20748;42.632;23.198;2024-01-16T06:24:57;91199.44;;;0.31;100.00
34506;BME280;20748;42.632;23.198;2024-01-16T06:27:31;91198.16;;;0.34;100.00
34506;BME280;20748;42.632;23.198;2024-01-16T06:30:06;91201.47;;;0.24;100.00
34506;BME280;20748;42.632;23.198;2024-01-16T06:32:42;91201.19;;;0.20;100.00
34506;BME280;20748;42.632;23.198;2024-01-16T06:35:17;91201.91;;;0.05;100.00
34506;BME280;20748;42.632;23.198;2024-01-16T06:37:51;91195.06;;;0.21;100.00
34506;BME280;20748;42.632;23.198;2024-01-16T06:40:25;91202.72;;;0.26;100.00
34506;BME280;20748;42.632;23.198;2024-01-16T06:42:59;91220.72;;;0.21;99.86
34506;BME280;20748;42.632;23.198;2024-01-16T06:45:33;91218.66;;;0.29;98.90
34506;BME280;20748;42.632;23.198;2024-01-16T06:48:08;91216.34;;;0.32;96.96
34506;BME280;20748;42.632;23.198;2024-01-16T06:50:43;91227.91;;;0.30;97.29
34506;BME280;20748;42.632;23.198;2024-01-16T06:53:17;91240.50;;;0.36;94.56
34506;BME280;20748;42.632;23.198;2024-01-16T06:55:51;91221.50;;;0.32;92.69
34506;BME280;20748;42.632;23.198;2024-01-16T06:58:25;91247.47;;;0.57;93.70
34506;BME280;20748;42.632;23.198;2024-01-16T07:00:59;91262.09;;;0.61;93.74
34506;BME280;20748;42.632;23.198;2024-01-16T07:03:34;91264.88;;;0.39;91.00
34506;BME280;20748;42.632;23.198;2024-01-16T07:06:08;91267.88;;;0.20;88.52
34506;BME280;20748;42.632;23.198;2024-01-16T07:08:42;91283.31;;;0.31;88.23
34506;BME280;20748;42.632;23.198;2024-01-16T07:11:17;91282.56;;;0.40;89.74
34506;BME280;20748;42.632;23.198;2024-01-16T07:13:51;91310.34;;;0.54;90.74
34506;BME280;20748;42.632;23.198;2024-01-16T07:16:25;91320.91;;;0.63;90.36
34506;BME280;20748;42.632;23.198;2024-01-16T07:19:00;91320.88;;;0.52;93.02
34506;BME280;20748;42.632;23.198;2024-01-16T07:21:35;91325.50;;;0.50;90.48
34506;BME280;20748;42.632;23.198;2024-01-16T07:24:08;91335.50;;;0.57;88.73
34506;BME280;20748;42.632;23.198;2024-01-16T07:26:42;91350.16;;;0.67;88.93
34506;BME280;20748;42.632;23.198;2024-01-16T07:29:17;91343.22;;;0.57;87.61
34506;BME280;20748;42.632;23.198;2024-01-16T07:31:51;91354.03;;;0.70;87.77
34506;BME280;20748;42.632;23.198;2024-01-16T07:34:27;91350.16;;;0.57;87.20
34506;BME280;20748;42.632;23.198;2024-01-16T07:37:02;91359.63;;;0.56;85.56
34506;BME280;20748;42.632;23.198;2024-01-16T07:39:36;91354.78;;;0.60;85.07
34506;BME280;20748;42.632;23.198;2024-01-16T07:42:11;91360.44;;;0.67;85.54
34506;BME280;20748;42.632;23.198;2024-01-16T07:44:45;91356.63;;;0.80;87.33
34506;BME280;20748;42.632;23.198;2024-01-16T07:47:19;91367.19;;;0.89;88.49
34506;BME280;20748;42.632;23.198;2024-01-16T07:49:55;91373.63;;;0.97;88.95
34506;BME280;20748;42.632;23.198;2024-01-16T07:52:29;91386.22;;;1.09;88.26
34506;BME280;20748;42.632;23.198;2024-01-16T07:55:04;91389.06;;;1.17;87.49
34506;BME280;20748;42.632;23.198;2024-01-16T07:57:38;91388.81;;;1.19;86.50
34506;BME280;20748;42.632;23.198;2024-01-16T08:00:13;91383.19;;;1.27;87.03
34506;BME280;20748;42.632;23.198;2024-01-16T08:02:48;91379.84;;;1.27;86.72
34506;BME280;20748;42.632;23.198;2024-01-16T08:05:24;91382.41;;;1.32;85.60
34506;BME280;20748;42.632;23.198;2024-01-16T08:08:00;91398.31;;;1.24;84.51
34506;BME280;20748;42.632;23.198;2024-01-16T08:10:43;91406.81;;;1.29;84.43
34506;BME280;20748;42.632;23.198;2024-01-16T08:13:17;91416.59;;;1.27;84.75
34506;BME280;20748;42.632;23.198;2024-01-16T08:15:51;91414.78;;;1.28;85.21
34506;BME280;20748;42.632;23.198;2024-01-16T08:18:25;91414.03;;;1.27;85.53
34506;BME280;20748;42.632;23.198;2024-01-16T08:21:00;91418.16;;;1.33;83.94
34506;BME280;20748;42.632;23.198;2024-01-16T08:23:34;91419.94;;;1.33;84.78
34506;BME280;20748;42.632;23.198;2024-01-16T08:26:07;91437.69;;;1.34;85.44
34506;BME280;20748;42.632;23.198;2024-01-16T08:28:41;91446.41;;;1.33;86.42
34506;BME280;20748;42.632;23.198;2024-01-16T08:31:16;91449.75;;;1.34;83.17
34506;BME280;20748;42.632;23.198;2024-01-16T08:33:50;91452.81;;;1.20;82.33
34506;BME280;20748;42.632;23.198;2024-01-16T08:36:27;91462.56;;;1.13;82.41
34506;BME280;20748;42.632;23.198;2024-01-16T08:39:01;91466.44;;;1.16;82.64
34506;BME280;20748;42.632;23.198;2024-01-16T08:41:35;91475.84;;;1.00;85.29
34506;BME280;20748;42.632;23.198;2024-01-16T08:44:09;91472.56;;;1.04;85.53
34506;BME280;20748;42.632;23.198;2024-01-16T08:46:42;91477.47;;;1.16;86.96
34506;BME280;20748;42.632;23.198;2024-01-16T08:49:16;91500.59;;;1.22;86.46
34506;BME280;20748;42.632;23.198;2024-01-16T08:51:54;91495.97;;;1.24;86.04
34506;BME280;20748;42.632;23.198;2024-01-16T08:54:28;91504.47;;;1.24;86.27
34506;BME280;20748;42.632;23.198;2024-01-16T08:57:02;91490.13;;;1.33;86.45
34506;BME280;20748;42.632;23.198;2024-01-16T08:59:36;91496.78;;;1.29;86.38
34506;BME280;20748;42.632;23.198;2024-01-16T09:02:10;91499.28;;;1.14;86.56
34506;BME280;20748;42.632;23.198;2024-01-16T09:04:44;91490.56;;;1.10;86.31
34506;BME280;20748;42.632;23.198;2024-01-16T09:07:21;91497.53;;;1.19;86.83
34506;BME280;20748;42.632;23.198;2024-01-16T09:09:55;91504.41;;;1.09;85.58
34506;BME280;20748;42.632;23.198;2024-01-16T09:12:29;91506.75;;;1.15;86.11
34506;BME280;20748;42.632;23.198;2024-01-16T09:15:02;91506.00;;;1.20;86.59
34506;BME280;20748;42.632;23.198;2024-01-16T09:17:37;91507.03;;;1.24;85.56
34506;BME280;20748;42.632;23.198;2024-01-16T09:20:11;91503.75;;;1.39;86.84
34506;BME280;20748;42.632;23.198;2024-01-16T09:22:46;91512.97;;;1.35;84.81
34506;BME280;20748;42.632;23.198;2024-01-16T09:25:20;91517.91;;;1.42;84.35
34506;BME280;20748;42.632;23.198;2024-01-16T09:27:56;91513.03;;;1.56;84.24
34506;BME280;20748;42.632;23.198;2024-01-16T09:30:30;91512.03;;;1.67;84.57
34506;BME280;20748;42.632;23.198;2024-01-16T09:33:04;91511.53;;;1.70;84.52
34506;BME280;20748;42.632;23.198;2024-01-16T09:35:39;91509.69;;;1.55;84.26
34506;BME280;20748;42.632;23.198;2024-01-16T09:38:14;91508.16;;;1.54;83.93
34506;BME280;20748;42.632;23.198;2024-01-16T09:40:48;91513.53;;;1.53;83.65
34506;BME280;20748;42.632;23.198;2024-01-16T09:43:23;91521.28;;;1.63;84.63
34506;BME280;20748;42.632;23.198;2024-01-16T09:46:00;91515.38;;;1.57;83.54
34506;BME280;20748;42.632;23.198;2024-01-16T09:48:35;91523.34;;;1.61;82.70
34506;BME280;20748;42.632;23.198;2024-01-16T09:51:09;91532.63;;;1.72;83.00
34506;BME280;20748;42.632;23.198;2024-01-16T09:53:44;91517.22;;;1.78;82.28
34506;BME280;20748;42.632;23.198;2024-01-16T09:56:21;91512.56;;;1.74;82.99
34506;BME280;20748;42.632;23.198;2024-01-16T09:59:05;91515.91;;;1.75;81.50
34506;BME280;20748;42.632;23.198;2024-01-16T10:01:39;91514.63;;;1.83;82.48
34506;BME280;20748;42.632;23.198;2024-01-16T10:04:13;91517.22;;;1.98;82.53
34506;BME280;20748;42.632;23.198;2024-01-16T10:06:47;91511.81;;;1.95;80.75
34506;BME280;20748;42.632;23.198;2024-01-16T10:09:24;91508.72;;;2.08;82.69
34506;BME280;20748;42.632;23.198;2024-01-16T10:11:58;91521.06;;;1.96;81.45
34506;BME280;20748;42.632;23.198;2024-01-16T10:14:33;91530.59;;;1.90;80.77
34506;BME280;20748;42.632;23.198;2024-01-16T10:17:07;91542.19;;;2.08;80.13
34506;BME280;20748;42.632;23.198;2024-01-16T10:19:47;91524.69;;;2.26;80.89
34506;BME280;20748;42.632;23.198;2024-01-16T10:22:21;91521.88;;;2.38;80.44
34506;BME280;20748;42.632;23.198;2024-01-16T10:25:07;91522.13;;;2.41;79.54
34506;BME280;20748;42.632;23.198;2024-01-16T10:27:42;91525.19;;;2.64;80.07
34506;BME280;20748;42.632;23.198;2024-01-16T10:30:21;91523.09;;;2.66;77.73
34506;BME280;20748;42.632;23.198;2024-01-16T10:33:12;91528.72;;;2.94;77.80
34506;BME280;20748;42.632;23.198;2024-01-16T10:35:45;91521.50;;;2.97;76.02
34506;BME280;20748;42.632;23.198;2024-01-16T10:38:20;91520.69;;;3.01;73.58
34506;BME280;20748;42.632;23.198;2024-01-16T10:41:06;91530.50;;;2.94;74.45
34506;BME280;20748;42.632;23.198;2024-01-16T10:43:39;91528.66;;;3.10;75.15
34506;BME280;20748;42.632;23.198;2024-01-16T10:46:13;91526.31;;;3.19;74.56
34506;BME280;20748;42.632;23.198;2024-01-16T10:48:58;91516.50;;;3.26;75.38
34506;BME280;20748;42.632;23.198;2024-01-16T10:51:32;91518.53;;;3.34;75.23
34506;BME280;20748;42.632;23.198;2024-01-16T10:54:05;91512.88;;;3.27;73.50
34506;BME280;20748;42.632;23.198;2024-01-16T10:56:44;91534.47;;;3.42;74.66
34506;BME280;20748;42.632;23.198;2024-01-16T10:59:25;91518.47;;;3.50;72.67
34506;BME280;20748;42.632;23.198;2024-01-16T11:01:58;91541.59;;;3.66;72.19
34506;BME280;20748;42.632;23.198;2024-01-16T11:04:32;91537.00;;;3.57;70.98
34506;BME280;20748;42.632;23.198;2024-01-16T11:07:05;91537.56;;;3.49;70.63
34506;BME280;20748;42.632;23.198;2024-01-16T11:09:39;91533.94;;;3.50;72.36
34506;BME280;20748;42.632;23.198;2024-01-16T11:12:14;91532.25;;;3.75;71.83
34506;BME280;20748;42.632;23.198;2024-01-16T11:14:49;91536.28;;;3.97;71.66
34506;BME280;20748;42.632;23.198;2024-01-16T11:17:24;91530.47;;;4.15;71.76
34506;BME280;20748;42.632;23.198;2024-01-16T11:19:57;91534.59;;;4.16;68.76
34506;BME280;20748;42.632;23.198;2024-01-16T11:22:30;91532.00;;;4.16;68.75
34506;BME280;20748;42.632;23.198;2024-01-16T11:25:10;91530.19;;;4.17;67.65
34506;BME280;20748;42.632;23.198;2024-01-16T11:27:46;91529.63;;;4.25;67.29
34506;BME280;20748;42.632;23.198;2024-01-16T11:30:29;91531.38;;;4.30;66.72
34506;BME280;20748;42.632;23.198;2024-01-16T11:33:03;91534.19;;;4.34;65.57
34506;BME280;20748;42.632;23.198;2024-01-16T11:35:37;91545.03;;;4.36;67.16
34506;BME280;20748;42.632;23.198;2024-01-16T11:38:16;91542.06;;;4.18;67.37
34506;BME280;20748;42.632;23.198;2024-01-16T11:40:50;91544.81;;;4.32;68.55
34506;BME280;20748;42.632;23.198;2024-01-16T11:43:36;91544.06;;;4.26;66.98
34506;BME280;20748;42.632;23.198;2024-01-16T11:46:09;91541.16;;;4.38;67.35
34506;BME280;20748;42.632;23.198;2024-01-16T11:49:01;91553.09;;;4.29;65.88
34506;BME280;20748;42.632;23.198;2024-01-16T11:51:41;91536.84;;;4.28;65.03
34506;BME280;20748;42.632;23.198;2024-01-16T11:54:14;91547.66;;;3.91;66.18
34506;BME280;20748;42.632;23.198;2024-01-16T12:00:01;91549.31;;;3.66;66.58
34506;BME280;20748;42.632;23.198;2024-01-16T12:02:51;91563.47;;;3.79;66.92
34506;BME280;20748;42.632;23.198;2024-01-16T12:05:24;91575.53;;;3.88;66.09
34506;BME280;20748;42.632;23.198;2024-01-16T12:07:57;91575.72;;;4.02;66.26
34506;BME280;20748;42.632;23.198;2024-01-16T12:10:30;91577.47;;;4.12;67.48
34506;BME280;20748;42.632;23.198;2024-01-16T12:13:03;91565.31;;;4.18;66.33
34506;BME280;20748;42.632;23.198;2024-01-16T12:15:38;91566.22;;;4.33;66.71
34506;BME280;20748;42.632;23.198;2024-01-16T12:18:18;91575.78;;;4.37;63.31
34506;BME280;20748;42.632;23.198;2024-01-16T12:20:51;91562.94;;;4.27;66.05
34506;BME280;20748;42.632;23.198;2024-01-16T12:23:24;91576.31;;;4.29;66.92
34506;BME280;20748;42.632;23.198;2024-01-16T12:25:58;91569.78;;;4.42;68.14
34506;BME280;20748;42.632;23.198;2024-01-16T12:28:35;91579.84;;;4.43;68.22
34506;BME280;20748;42.632;23.198;2024-01-16T12:31:09;91568.97;;;4.12;69.71
34506;BME280;20748;42.632;23.198;2024-01-16T12:33:41;91575.09;;;3.71;71.32
34506;BME280;20748;42.632;23.198;2024-01-16T12:36:15;91584.97;;;3.58;73.21
34506;BME280;20748;42.632;23.198;2024-01-16T12:38:54;91587.84;;;3.52;74.29
34506;BME280;20748;42.632;23.198;2024-01-16T12:41:30;91589.91;;;3.44;74.72
34506;BME280;20748;42.632;23.198;2024-01-16T12:44:04;91590.72;;;3.40;75.86
34506;BME280;20748;42.632;23.198;2024-01-16T12:46:39;91583.69;;;3.51;74.85
34506;BME280;20748;42.632;23.198;2024-01-16T12:49:12;91587.56;;;3.58;76.03
34506;BME280;20748;42.632;23.198;2024-01-16T12:51:45;91580.41;;;3.34;75.65
34506;BME280;20748;42.632;23.198;2024-01-16T12:54:20;91577.34;;;3.22;76.44
34506;BME280;20748;42.632;23.198;2024-01-16T12:56:58;91581.00;;;3.05;76.78
34506;BME280;20748;42.632;23.198;2024-01-16T12:59:32;91589.50;;;3.16;77.59
34506;BME280;20748;42.632;23.198;2024-01-16T13:02:06;91579.94;;;3.27;76.78
34506;BME280;20748;42.632;23.198;2024-01-16T13:04:39;91586.84;;;3.42;75.81
34506;BME280;20748;42.632;23.198;2024-01-16T13:07:16;91588.13;;;3.45;76.74
34506;BME280;20748;42.632;23.198;2024-01-16T13:10:06;91593.88;;;3.21;76.18
34506;BME280;20748;42.632;23.198;2024-01-16T13:12:41;91596.94;;;3.23;77.12
34506;BME280;20748;42.632;23.198;2024-01-16T13:15:14;91601.38;;;2.97;78.67
34506;BME280;20748;42.632;23.198;2024-01-16T13:17:50;91605.00;;;3.06;78.22
34506;BME280;20748;42.632;23.198;2024-01-16T13:20:22;91611.94;;;2.95;78.11
34506;BME280;20748;42.632;23.198;2024-01-16T13:22:56;91607.06;;;2.93;78.91
34506;BME280;20748;42.632;23.198;2024-01-16T13:25:29;91611.94;;;3.00;79.26
34506;BME280;20748;42.632;23.198;2024-01-16T13:28:02;91606.28;;;2.88;79.79
34506;BME280;20748;42.632;23.198;2024-01-16T13:30:38;91615.06;;;2.76;78.36
34506;BME280;20748;42.632;23.198;2024-01-16T13:33:12;91620.22;;;2.50;79.64
34506;BME280;20748;42.632;23.198;2024-01-16T13:35:46;91615.59;;;2.58;79.93
34506;BME280;20748;42.632;23.198;2024-01-16T13:38:20;91607.59;;;2.70;80.47
34506;BME280;20748;42.632;23.198;2024-01-16T13:40:53;91610.94;;;2.60;79.67